Time;durP1;ratioP1;P1;durP2;ratioP2;P2;SDS_P1;SDS_P2;PMS_P1;PMS_P2;Temp;Humidity;BMP_temperature;BMP_pressure;BME280_temperature;BME280_humidity;BME280_pressure;Samples;Min_cycle;Max_cycle;Signal;HPM_P1;HPM_P2
2022/04/16 00:01:49;;;;;;;1.95;0.50;;;29.30;95.10;;;;;;5040653;28;20571;-72
2022/04/16 00:04:17;;;;;;;1.25;0.52;;;29.40;94.30;;;;;;5046679;28;20049;-73
2022/04/16 00:06:44;;;;;;;1.13;0.65;;;29.50;93.90;;;;;;5031858;28;20052;-73
2022/04/16 00:09:12;;;;;;;3.40;0.45;;;30.00;93.80;;;;;;5059783;28;20479;-71
2022/04/16 00:11:40;;;;;;;2.03;0.68;;;30.50;93.50;;;;;;5031955;28;20513;-71
2022/04/16 00:14:07;;;;;;;2.20;0.50;;;30.20;93.10;;;;;;5048413;28;20048;-72
2022/04/16 00:16:35;;;;;;;0.60;0.47;;;30.00;92.70;;;;;;5041049;28;20081;-73
2022/04/16 00:19:02;;;;;;;0.77;0.63;;;30.20;92.50;;;;;;5031163;28;20063;-72
2022/04/16 00:21:30;;;;;;;2.22;0.57;;;30.70;91.60;;;;;;5042554;28;20037;-72
2022/04/16 00:23:59;;;;;;;0.65;0.40;;;30.30;91.60;;;;;;5031675;28;20021;-73
2022/04/16 00:26:27;;;;;;;0.98;0.43;;;30.60;91.80;;;;;;5031107;28;20029;-71
2022/04/16 00:28:57;;;;;;;2.05;0.70;;;30.90;91.10;;;;;;5032062;28;20480;-71
2022/04/16 00:31:25;;;;;;;2.72;0.80;;;31.20;91.20;;;;;;5030173;28;20029;-73
2022/04/16 00:33:53;;;;;;;0.90;0.63;;;31.10;90.80;;;;;;5036045;28;20658;-72
2022/04/16 00:36:20;;;;;;;1.33;0.60;;;31.10;91.40;;;;;;5043059;28;20037;-72
2022/04/16 00:38:47;;;;;;;4.03;0.82;;;31.10;91.10;;;;;;5030039;28;20022;-73
2022/04/16 00:41:15;;;;;;;1.90;1.17;;;31.10;90.70;;;;;;5030594;28;20485;-72
2022/04/16 00:43:42;;;;;;;1.42;0.38;;;30.80;91.00;;;;;;5046043;28;20028;-71
2022/04/16 00:46:09;;;;;;;2.58;0.40;;;31.20;91.00;;;;;;5044581;28;20478;-72
2022/04/16 00:48:37;;;;;;;1.08;0.50;;;31.30;90.30;;;;;;5039508;28;20466;-72
2022/04/16 00:51:04;;;;;;;1.23;0.50;;;31.60;90.50;;;;;;5050250;28;20021;-72
2022/04/16 00:53:32;;;;;;;2.13;0.93;;;30.90;90.40;;;;;;5044918;28;20116;-73
2022/04/16 00:56:00;;;;;;;1.25;1.05;;;30.50;90.30;;;;;;5040937;28;20390;-74
2022/04/16 00:58:28;;;;;;;4.07;0.65;;;30.60;91.00;;;;;;5035593;28;20064;-72
2022/04/16 01:00:55;;;;;;;2.70;1.00;;;30.50;91.40;;;;;;5057052;28;20029;-73
2022/04/16 01:03:22;;;;;;;1.10;0.50;;;30.80;91.40;;;;;;5036467;28;20037;-72
2022/04/16 01:05:51;;;;;;;3.28;0.57;;;31.20;90.50;;;;;;5030125;28;20475;-73
2022/04/16 01:08:22;;;;;;;1.27;0.65;;;31.20;90.10;;;;;;5055289;28;20028;-73
2022/04/16 01:10:49;;;;;;;0.93;0.40;;;31.30;90.40;;;;;;5051220;28;20029;-75
2022/04/16 01:13:18;;;;;;;2.17;0.40;;;31.40;90.30;;;;;;5030663;28;20021;-72
2022/04/16 01:15:46;;;;;;;3.28;0.60;;;31.90;91.00;;;;;;5047642;28;20032;-71
2022/04/16 01:18:13;;;;;;;1.30;0.40;;;32.40;87.60;;;;;;5048057;28;20067;-71
2022/04/16 01:20:41;;;;;;;0.80;0.45;;;32.80;87.30;;;;;;5052949;28;20033;-73
2022/04/16 01:23:08;;;;;;;3.03;0.47;;;33.00;86.80;;;;;;5062090;28;20067;-74
2022/04/16 01:25:36;;;;;;;3.00;0.45;;;33.30;87.30;;;;;;5075023;28;20475;-73
2022/04/16 01:28:05;;;;;;;2.65;0.68;;;33.30;87.20;;;;;;5052499;28;20049;-72
2022/04/16 01:30:32;;;;;;;1.00;0.55;;;33.10;86.60;;;;;;5053708;28;20076;-72
2022/04/16 01:33:01;;;;;;;1.25;0.30;;;32.90;86.30;;;;;;5048345;28;20033;-72
2022/04/16 01:35:29;;;;;;;0.95;0.45;;;32.90;85.70;;;;;;5045401;28;20075;-71
2022/04/16 01:37:57;;;;;;;1.85;0.60;;;33.10;86.20;;;;;;5042624;28;20547;-72
2022/04/16 01:40:27;;;;;;;0.47;0.20;;;33.30;85.60;;;;;;5040305;28;20123;-71
2022/04/16 01:42:57;;;;;;;1.30;0.47;;;33.40;85.90;;;;;;5037103;28;20072;-72
2022/04/16 01:45:25;;;;;;;2.17;0.43;;;33.30;85.20;;;;;;5037157;28;20561;-73
2022/04/16 01:47:53;;;;;;;4.85;0.50;;;33.20;83.30;;;;;;5043936;28;20055;-72
2022/04/16 01:50:22;;;;;;;1.17;0.60;;;32.90;83.60;;;;;;5035040;28;20391;-73
2022/04/16 01:52:49;;;;;;;1.02;0.38;;;33.00;82.50;;;;;;5049032;28;20032;-73
2022/04/16 01:55:16;;;;;;;0.80;0.40;;;32.70;83.10;;;;;;5044937;28;20075;-72
2022/04/16 01:57:44;;;;;;;2.15;0.98;;;32.80;85.60;;;;;;5036292;28;20781;-73
2022/04/16 02:00:14;;;;;;;3.55;0.60;;;32.80;84.70;;;;;;5033758;28;20030;-74
2022/04/16 02:02:42;;;;;;;2.05;0.40;;;33.00;84.30;;;;;;5048794;28;20031;-74
2022/04/16 02:05:11;;;;;;;0.93;0.40;;;32.90;84.10;;;;;;5057360;28;20044;-72
2022/04/16 02:07:39;;;;;;;0.90;0.30;;;32.90;82.30;;;;;;5052322;28;20040;-73
2022/04/16 02:10:08;;;;;;;1.10;0.40;;;32.80;83.90;;;;;;5045154;28;20024;-72
2022/04/16 02:12:39;;;;;;;0.73;0.30;;;33.00;83.90;;;;;;5039354;28;20044;-71
2022/04/16 02:15:08;;;;;;;2.13;0.70;;;33.40;84.60;;;;;;5060910;28;20056;-74
2022/04/16 02:17:36;;;;;;;0.52;0.30;;;33.60;83.40;;;;;;5039760;28;20025;-72
2022/04/16 02:20:09;;;;;;;1.40;0.50;;;33.40;80.70;;;;;;5052349;28;20032;-73
2022/04/16 02:22:41;;;;;;;2.15;0.57;;;33.30;81.60;;;;;;5045373;28;20021;-73
2022/04/16 02:25:10;;;;;;;3.53;1.05;;;32.60;81.70;;;;;;5033649;28;20032;-73
2022/04/16 02:27:38;;;;;;;0.80;0.40;;;32.70;81.60;;;;;;5040275;28;20700;-73
2022/04/16 02:30:07;;;;;;;2.17;0.22;;;31.70;81.50;;;;;;5047778;28;20033;-71
2022/04/16 02:32:43;;;;;;;1.08;0.40;;;31.50;82.70;;;;;;5041041;28;20407;-71
2022/04/16 02:35:13;;;;;;;3.22;0.75;;;31.70;81.50;;;;;;5049967;28;20036;-72
2022/04/16 02:37:41;;;;;;;0.32;0.20;;;31.50;80.40;;;;;;5050386;28;20056;-73
2022/04/16 02:40:09;;;;;;;1.75;0.47;;;31.90;79.80;;;;;;5041450;28;20056;-72
2022/04/16 02:42:38;;;;;;;1.40;1.05;;;32.00;79.70;;;;;;5050047;28;20383;-73
2022/04/16 02:47:56;;;;;;;1.77;0.30;;;32.40;80.80;;;;;;5058864;28;20043;-73
2022/04/16 02:50:27;;;;;;;0.93;0.40;;;32.00;78.70;;;;;;5048246;28;20063;-73
2022/04/16 02:52:55;;;;;;;4.15;0.40;;;31.80;78.50;;;;;;5043427;28;20031;-72
2022/04/16 02:55:23;;;;;;;0.75;0.20;;;31.70;80.20;;;;;;5033932;28;20036;-71
2022/04/16 02:57:51;;;;;;;1.20;0.30;;;31.50;78.90;;;;;;5054888;28;20136;-72
2022/04/16 03:00:20;;;;;;;0.95;0.30;;;31.70;80.30;;;;;;5047957;28;20017;-72
2022/04/16 03:02:49;;;;;;;1.40;0.50;;;31.80;79.20;;;;;;5043940;28;20417;-73
2022/04/16 03:05:19;;;;;;;1.25;0.40;;;31.40;80.80;;;;;;5047380;28;20045;-74
2022/04/16 03:07:46;;;;;;;1.35;0.40;;;30.70;81.80;;;;;;5033113;28;20033;-74
2022/04/16 03:10:15;;;;;;;0.65;0.35;;;30.80;81.70;;;;;;5032722;28;20033;-75
2022/04/16 03:12:53;;;;;;;0.70;0.40;;;30.60;81.30;;;;;;5033489;28;20498;-74
2022/04/16 03:18:09;;;;;;;2.13;0.68;;;30.30;81.00;;;;;;5046696;28;20081;-74
2022/04/16 03:20:37;;;;;;;1.20;0.40;;;30.30;80.10;;;;;;5044375;28;20063;-74
2022/04/16 03:23:05;;;;;;;0.98;0.40;;;30.20;80.10;;;;;;5041530;28;20031;-75
2022/04/16 03:25:33;;;;;;;1.75;0.40;;;30.20;80.10;;;;;;5035776;28;20033;-73
2022/04/16 03:28:10;;;;;;;0.88;0.55;;;30.20;79.80;;;;;;5046622;28;20491;-75
2022/04/16 03:30:38;;;;;;;0.73;0.30;;;30.00;81.90;;;;;;5032211;28;20033;-74
2022/04/16 03:33:06;;;;;;;2.28;0.40;;;29.30;81.40;;;;;;5041612;28;20426;-74
2022/04/16 03:35:34;;;;;;;1.80;0.60;;;29.30;81.80;;;;;;5044122;28;20488;-73
2022/04/16 03:38:01;;;;;;;0.75;0.40;;;29.90;81.70;;;;;;5049247;28;20375;-74
2022/04/16 03:40:29;;;;;;;0.50;0.30;;;29.80;80.10;;;;;;5035960;28;20101;-74
2022/04/16 03:42:59;;;;;;;0.45;0.20;;;29.20;80.40;;;;;;5036455;28;20053;-73
2022/04/16 03:45:31;;;;;;;0.98;0.40;;;28.80;81.70;;;;;;5039274;28;20053;-73
2022/04/16 03:48:01;;;;;;;1.52;0.40;;;28.80;83.20;;;;;;5036910;28;20036;-74
2022/04/16 03:50:30;;;;;;;1.10;0.38;;;28.80;83.80;;;;;;5043303;28;20387;-73
2022/04/16 03:52:58;;;;;;;0.60;0.43;;;28.60;82.00;;;;;;5039318;28;20025;-74
2022/04/16 04:01:00;;;;;;;0.50;0.30;;;27.80;82.10;;;;;;5042320;28;20045;-72
2022/04/16 04:03:28;;;;;;;0.65;0.30;;;27.60;84.40;;;;;;5048911;28;20376;-73
2022/04/16 04:05:58;;;;;;;1.02;0.40;;;27.60;84.60;;;;;;5034300;28;20041;-73
2022/04/16 04:08:26;;;;;;;0.85;0.40;;;27.70;85.00;;;;;;5050223;28;20146;-73
2022/04/16 04:10:54;;;;;;;0.93;0.20;;;27.80;84.00;;;;;;5055731;28;20032;-74
2022/04/16 04:13:23;;;;;;;0.52;0.20;;;27.90;83.50;;;;;;5046580;28;20077;-73
2022/04/16 04:15:50;;;;;;;0.60;0.30;;;27.90;83.60;;;;;;5047284;28;20036;-72
2022/04/16 04:18:17;;;;;;;0.40;0.17;;;27.90;83.60;;;;;;5044539;28;20033;-71
2022/04/16 04:20:45;;;;;;;1.40;0.30;;;28.00;83.20;;;;;;5044398;28;20057;-75
2022/04/16 04:23:12;;;;;;;3.45;0.65;;;27.90;83.00;;;;;;5048009;28;20485;-74
2022/04/16 04:25:39;;;;;;;0.80;0.40;;;27.70;83.30;;;;;;5042135;28;20120;-76
2022/04/16 04:28:07;;;;;;;0.70;0.25;;;27.80;84.60;;;;;;5050069;28;20135;-72
2022/04/16 04:30:34;;;;;;;1.38;0.45;;;28.10;83.40;;;;;;5051095;28;20025;-74
2022/04/16 04:33:01;;;;;;;1.25;0.50;;;28.50;82.50;;;;;;5049214;28;20386;-72
2022/04/16 04:35:29;;;;;;;1.73;0.30;;;28.50;79.70;;;;;;5045785;28;20159;-72
2022/04/16 04:37:56;;;;;;;0.95;0.32;;;28.40;81.90;;;;;;5037750;28;20025;-73
2022/04/16 04:40:23;;;;;;;0.70;0.30;;;28.40;82.40;;;;;;5040275;28;20075;-74
2022/04/16 04:42:51;;;;;;;1.52;0.20;;;28.60;83.30;;;;;;5039640;28;20494;-74
2022/04/16 04:45:18;;;;;;;2.45;0.52;;;28.70;82.20;;;;;;5057200;28;20045;-74
2022/04/16 04:47:46;;;;;;;1.13;0.35;;;28.80;82.20;;;;;;5044744;28;20514;-72
2022/04/16 04:50:13;;;;;;;0.30;0.28;;;28.70;82.10;;;;;;5050401;28;20538;-73
2022/04/16 04:52:42;;;;;;;0.85;0.40;;;28.70;81.70;;;;;;5048854;28;20116;-74
2022/04/16 04:55:13;;;;;;;2.83;0.38;;;28.80;82.80;;;;;;5035115;28;20070;-73
2022/04/16 04:57:44;;;;;;;1.65;0.40;;;28.80;82.90;;;;;;5038344;28;20040;-72
2022/04/16 05:00:14;;;;;;;0.88;0.30;;;28.80;83.90;;;;;;5047858;28;20043;-73
2022/04/16 05:02:47;;;;;;;1.83;0.50;;;28.70;83.10;;;;;;5049263;28;20107;-73
2022/04/16 05:05:16;;;;;;;2.22;0.55;;;28.20;83.90;;;;;;5057404;28;20021;-74
2022/04/16 05:07:43;;;;;;;3.55;1.13;;;28.00;85.40;;;;;;5044542;28;20085;-76
2022/04/16 05:10:11;;;;;;;1.73;0.40;;;27.70;85.60;;;;;;5042329;28;20029;-73
2022/04/16 05:12:38;;;;;;;2.17;0.40;;;27.60;85.60;;;;;;5047848;28;20025;-73
2022/04/16 05:15:06;;;;;;;2.88;0.68;;;27.60;86.20;;;;;;5054786;28;20056;-74
2022/04/16 05:17:37;;;;;;;1.58;0.50;;;27.80;86.20;;;;;;5058258;28;20101;-73
2022/04/16 05:20:10;;;;;;;0.57;0.50;;;28.00;84.10;;;;;;5053433;28;20039;-73
2022/04/16 05:22:38;;;;;;;2.35;0.43;;;27.80;83.40;;;;;;5049389;28;20479;-73
2022/04/16 05:25:06;;;;;;;2.28;0.40;;;27.60;85.00;;;;;;5053473;28;20493;-74
2022/04/16 05:27:34;;;;;;;1.35;0.40;;;27.60;84.80;;;;;;5058879;28;20076;-74
2022/04/16 05:30:12;;;;;;;0.47;0.32;;;27.60;85.50;;;;;;5050701;28;20025;-72
2022/04/16 05:32:45;;;;;;;2.03;0.60;;;27.60;85.60;;;;;;5048518;28;20376;-72
2022/04/16 05:35:12;;;;;;;1.23;0.50;;;27.50;86.40;;;;;;5047588;28;20021;-73
2022/04/16 05:37:40;;;;;;;1.33;0.47;;;27.20;88.00;;;;;;5047818;28;20575;-73
2022/04/16 05:40:09;;;;;;;1.33;0.40;;;27.00;88.60;;;;;;5049813;28;20118;-74
2022/04/16 05:42:43;;;;;;;2.50;0.60;;;26.90;89.40;;;;;;5047357;28;20514;-74
2022/04/16 05:45:14;;;;;;;3.00;1.10;;;26.70;91.40;;;;;;5030720;28;20264;-74
2022/04/16 05:47:44;;;;;;;3.88;0.90;;;26.40;92.50;;;;;;5037436;28;20048;-74
2022/04/16 05:50:14;;;;;;;2.72;1.25;;;26.10;92.90;;;;;;5045715;28;20044;-72
2022/04/16 05:52:41;;;;;;;1.25;0.80;;;26.00;93.50;;;;;;5040823;28;20067;-73
2022/04/16 05:55:11;;;;;;;3.17;0.68;;;25.90;93.80;;;;;;5032957;28;20451;-74
2022/04/16 05:57:42;;;;;;;3.40;0.73;;;26.00;94.10;;;;;;5055960;28;20437;-74
2022/04/16 06:00:13;;;;;;;2.80;0.73;;;25.90;93.80;;;;;;5036635;28;20248;-75
2022/04/16 06:02:41;;;;;;;3.17;1.25;;;25.80;93.90;;;;;;5042687;28;20089;-75
2022/04/16 06:05:09;;;;;;;3.22;1.52;;;25.80;94.20;;;;;;5050273;28;20029;-75
2022/04/16 06:07:36;;;;;;;3.17;0.75;;;25.60;94.60;;;;;;5035363;28;20029;-73
2022/04/16 06:10:04;;;;;;;2.03;0.65;;;25.40;94.70;;;;;;5034907;28;21764;-73
2022/04/16 06:12:33;;;;;;;1.58;1.05;;;25.30;94.90;;;;;;5045988;28;20033;-74
2022/04/16 06:15:00;;;;;;;1.98;0.88;;;25.30;95.30;;;;;;5050384;28;20035;-73
2022/04/16 06:17:28;;;;;;;2.53;0.80;;;25.30;95.60;;;;;;5050656;28;20554;-73
2022/04/16 06:19:55;;;;;;;3.75;0.70;;;25.20;95.60;;;;;;5048093;28;20384;-73
2022/04/16 06:22:22;;;;;;;1.98;0.82;;;25.20;95.50;;;;;;5041435;28;20060;-73
2022/04/16 06:24:49;;;;;;;2.85;0.70;;;25.20;95.60;;;;;;5051858;28;20028;-74
2022/04/16 06:27:17;;;;;;;4.03;0.98;;;25.20;95.80;;;;;;5047652;28;20044;-74
2022/04/16 06:29:44;;;;;;;3.13;1.17;;;25.00;96.30;;;;;;5052244;28;20386;-73
2022/04/16 06:32:12;;;;;;;3.70;0.93;;;25.00;96.30;;;;;;5050252;28;20192;-73
2022/04/16 06:34:39;;;;;;;3.63;1.05;;;24.90;96.50;;;;;;5037196;28;20120;-72
2022/04/16 06:37:06;;;;;;;3.72;1.10;;;24.90;96.80;;;;;;5044464;28;20379;-73
2022/04/16 06:39:33;;;;;;;2.78;1.02;;;24.70;97.30;;;;;;5048659;28;20045;-72
2022/04/16 06:42:01;;;;;;;3.40;1.33;;;24.60;97.20;;;;;;5047471;28;20384;-73
2022/04/16 06:44:29;;;;;;;3.22;0.93;;;24.60;97.30;;;;;;5040607;28;20070;-73
2022/04/16 06:46:56;;;;;;;5.40;1.02;;;24.60;97.50;;;;;;5037589;28;20124;-74
2022/04/16 06:49:25;;;;;;;1.15;0.60;;;24.60;97.70;;;;;;5050477;28;20498;-74
2022/04/16 06:51:54;;;;;;;2.05;1.00;;;24.60;97.70;;;;;;5036640;28;20197;-74
2022/04/16 06:54:21;;;;;;;1.50;0.82;;;24.50;97.90;;;;;;5048505;28;20099;-74
2022/04/16 06:56:49;;;;;;;6.80;0.95;;;24.50;97.70;;;;;;5066014;28;20415;-76
2022/04/16 06:59:16;;;;;;;2.30;1.10;;;24.50;97.90;;;;;;5051836;28;20036;-75
2022/04/16 07:01:43;;;;;;;6.72;1.50;;;24.40;98.00;;;;;;5041781;28;20426;-73
2022/04/16 07:04:11;;;;;;;6.53;1.20;;;24.40;98.10;;;;;;5047259;28;20028;-73
2022/04/16 07:06:39;;;;;;;3.25;1.00;;;24.20;98.20;;;;;;5056341;28;20033;-75
2022/04/16 07:09:07;;;;;;;4.68;1.70;;;24.10;98.30;;;;;;5034402;28;20037;-75
2022/04/16 07:11:34;;;;;;;2.58;1.25;;;24.10;98.40;;;;;;5039351;28;20030;-74
2022/04/16 07:14:02;;;;;;;2.47;1.27;;;24.00;98.60;;;;;;5040009;28;20039;-75
2022/04/16 07:16:29;;;;;;;1.85;1.10;;;23.80;98.70;;;;;;5068668;28;20063;-73
2022/04/16 07:18:56;;;;;;;1.05;0.80;;;23.80;98.60;;;;;;5049104;28;20434;-74
2022/04/16 07:21:24;;;;;;;3.60;0.98;;;23.70;98.60;;;;;;5050948;28;20029;-75
2022/04/16 07:23:51;;;;;;;4.95;0.82;;;23.60;98.60;;;;;;5038194;28;20083;-73
2022/04/16 07:26:18;;;;;;;6.85;1.17;;;23.60;98.70;;;;;;5053654;28;20504;-75
2022/04/16 07:28:46;;;;;;;3.40;0.90;;;23.50;98.70;;;;;;5039784;28;20040;-75
2022/04/16 07:31:13;;;;;;;1.65;0.80;;;23.50;98.80;;;;;;5052225;28;20119;-73
2022/04/16 07:33:40;;;;;;;3.35;1.45;;;23.40;98.90;;;;;;5033454;28;20037;-74
2022/04/16 07:36:08;;;;;;;5.35;1.85;;;23.40;98.90;;;;;;5036293;28;20068;-74
2022/04/16 07:38:35;;;;;;;3.72;1.00;;;23.30;98.90;;;;;;5054598;28;20036;-74
2022/04/16 07:41:02;;;;;;;3.38;0.80;;;23.30;99.30;;;;;;5046050;28;20064;-77
2022/04/16 07:43:32;;;;;;;3.88;0.90;;;23.10;99.30;;;;;;5040325;28;20037;-75
2022/04/16 07:46:00;;;;;;;2.83;0.98;;;22.90;99.60;;;;;;5049199;28;20499;-74
2022/04/16 07:48:27;;;;;;;2.70;1.20;;;22.70;99.90;;;;;;5042416;28;21509;-75
2022/04/16 07:50:55;;;;;;;3.55;1.20;;;22.60;99.90;;;;;;5035033;28;20022;-78
2022/04/16 07:53:23;;;;;;;4.90;1.05;;;22.40;99.90;;;;;;5035968;28;20086;-77
2022/04/16 07:55:50;;;;;;;3.50;1.40;;;22.30;99.90;;;;;;5045871;28;20057;-76
2022/04/16 07:58:17;;;;;;;8.98;1.67;;;22.20;99.90;;;;;;5047295;28;20024;-76
2022/04/16 08:00:45;;;;;;;3.28;1.73;;;22.00;99.90;;;;;;5035512;28;20013;-76
2022/04/16 08:03:12;;;;;;;4.75;1.55;;;22.00;99.90;;;;;;5042548;28;20028;-74
2022/04/16 08:05:40;;;;;;;3.42;1.65;;;21.90;99.90;;;;;;5031474;28;20766;-75
2022/04/16 08:08:10;;;;;;;5.40;3.83;;;21.90;99.90;;;;;;5033476;28;20038;-74
2022/04/16 08:10:37;;;;;;;4.38;2.70;;;21.80;99.90;;;;;;5055246;28;20107;-74
2022/04/16 08:13:08;;;;;;;3.58;1.38;;;21.90;99.90;;;;;;5036465;28;20033;-73
2022/04/16 08:15:36;;;;;;;2.75;1.65;;;22.00;99.90;;;;;;5038053;28;20025;-74
2022/04/16 08:18:03;;;;;;;6.18;1.83;;;21.90;99.90;;;;;;5047244;28;20112;-73
2022/04/16 08:20:31;;;;;;;7.45;3.88;;;22.10;99.90;;;;;;5043009;28;20030;-74
2022/04/16 08:22:59;;;;;;;6.65;3.10;;;22.20;99.90;;;;;;5040945;28;20477;-74
2022/04/16 08:27:54;;;;;;;7.15;3.75;;;22.00;99.90;;;;;;5032651;28;20048;-73
2022/04/16 08:30:21;;;;;;;9.30;2.28;;;22.00;99.90;;;;;;5029253;28;20025;-73
2022/04/16 08:32:49;;;;;;;1.75;1.17;;;21.80;99.90;;;;;;5033323;28;20059;-73
2022/04/16 08:35:17;;;;;;;9.30;1.73;;;21.70;99.90;;;;;;5036662;28;20474;-72
2022/04/16 08:37:46;;;;;;;2.50;1.40;;;21.60;99.90;;;;;;5041418;28;20807;-72
2022/04/16 08:40:14;;;;;;;2.70;1.38;;;21.50;99.90;;;;;;5046524;28;20056;-73
2022/04/16 08:42:44;;;;;;;3.25;1.15;;;21.40;99.90;;;;;;5041493;28;20605;-74
2022/04/16 08:45:12;;;;;;;2.15;1.00;;;21.30;99.90;;;;;;5069729;28;20402;-73
2022/04/16 08:47:44;;;;;;;3.42;1.50;;;21.20;99.90;;;;;;5044153;28;20055;-73
2022/04/16 08:50:13;;;;;;;4.47;2.10;;;21.20;99.90;;;;;;5050360;28;20029;-74
2022/04/16 08:52:41;;;;;;;5.30;2.58;;;21.20;99.90;;;;;;5045601;28;20035;-74
2022/04/16 08:55:13;;;;;;;4.47;3.75;;;21.10;99.90;;;;;;5035257;28;20017;-72
2022/04/16 08:57:41;;;;;;;6.03;3.53;;;21.10;99.90;;;;;;5047217;28;20107;-74
2022/04/16 09:00:13;;;;;;;11.45;4.43;;;21.00;99.90;;;;;;5036669;28;20073;-74
2022/04/16 09:02:59;;;;;;;8.23;3.60;;;21.00;99.90;;;;;;5041306;28;20029;-70
2022/04/16 09:05:28;;;;;;;4.28;2.35;;;20.90;99.90;;;;;;5050596;28;20383;-72
2022/04/16 09:07:58;;;;;;;4.80;1.67;;;20.80;99.90;;;;;;5049068;28;20695;-73
2022/04/16 09:10:33;;;;;;;4.20;1.95;;;20.70;99.90;;;;;;5045030;28;20479;-74
2022/04/16 09:13:01;;;;;;;9.95;2.53;;;20.70;99.90;;;;;;5047327;28;20048;-73
2022/04/16 09:15:29;;;;;;;5.20;1.88;;;20.60;99.90;;;;;;5065233;28;20029;-75
2022/04/16 09:18:00;;;;;;;6.18;2.60;;;20.50;99.90;;;;;;5070472;28;20037;-72
2022/04/16 09:20:39;;;;;;;5.07;1.55;;;20.40;99.90;;;;;;5051010;28;20136;-75
2022/04/16 09:23:18;;;;;;;4.40;1.75;;;20.30;99.90;;;;;;5045408;28;20083;-73
2022/04/16 09:25:47;;;;;;;3.05;1.92;;;20.30;99.90;;;;;;5050281;28;20132;-73
2022/04/16 09:28:19;;;;;;;5.05;2.50;;;20.10;99.90;;;;;;5045987;28;20037;-73
2022/04/16 09:30:55;;;;;;;3.03;1.52;;;20.10;99.90;;;;;;5031255;28;20100;-73
2022/04/16 09:33:24;;;;;;;4.47;1.67;;;20.10;99.90;;;;;;5031621;28;20025;-73
2022/04/16 09:35:56;;;;;;;3.42;1.92;;;20.00;99.90;;;;;;5035676;28;20032;-74
2022/04/16 09:38:27;;;;;;;3.63;2.03;;;19.90;99.90;;;;;;5045616;28;20025;-73
2022/04/16 09:40:54;;;;;;;3.63;1.92;;;19.90;99.90;;;;;;5047298;28;20037;-75
2022/04/16 09:43:22;;;;;;;3.90;2.38;;;19.80;99.90;;;;;;5059471;28;20051;-74
2022/04/16 09:45:50;;;;;;;3.55;1.20;;;19.80;99.90;;;;;;5069697;28;20051;-73
2022/04/16 09:48:18;;;;;;;3.83;1.88;;;19.70;99.90;;;;;;5043798;28;20510;-74
2022/04/16 09:50:46;;;;;;;4.60;1.95;;;19.70;99.90;;;;;;5046944;28;20087;-73
2022/04/16 09:53:13;;;;;;;3.60;1.70;;;19.60;99.90;;;;;;5041583;28;20038;-74
2022/04/16 09:55:42;;;;;;;4.43;1.75;;;19.60;99.90;;;;;;5051940;28;20025;-74
2022/04/16 09:58:13;;;;;;;3.08;1.75;;;19.50;99.90;;;;;;5050395;28;20028;-73
2022/04/16 10:00:41;;;;;;;2.50;1.55;;;19.50;99.90;;;;;;5058407;28;20043;-73
2022/04/16 10:03:11;;;;;;;5.40;2.05;;;19.50;99.90;;;;;;5050117;28;20475;-73
2022/04/16 10:05:38;;;;;;;1.90;1.70;;;19.40;99.90;;;;;;5051145;28;20037;-74
2022/04/16 10:08:07;;;;;;;2.95;2.20;;;19.40;99.90;;;;;;5046432;28;20083;-73
2022/04/16 10:10:42;;;;;;;4.00;2.50;;;19.40;99.90;;;;;;5048859;28;20463;-73
2022/04/16 10:13:12;;;;;;;3.15;2.85;;;19.30;99.90;;;;;;5042529;28;20040;-72
2022/04/16 10:16:06;;;;;;;5.95;3.42;;;19.30;99.90;;;;;;5038426;28;20021;-73
2022/04/16 10:18:37;;;;;;;5.35;2.88;;;19.20;99.90;;;;;;5040254;28;20044;-74
2022/04/16 10:21:13;;;;;;;5.28;3.28;;;19.20;99.90;;;;;;5032937;28;20226;-74
2022/04/16 10:23:41;;;;;;;5.25;2.67;;;19.20;99.90;;;;;;5035777;28;20031;-74
2022/04/16 10:26:16;;;;;;;4.63;2.90;;;19.20;99.90;;;;;;5052640;28;20357;-73
2022/04/16 10:28:45;;;;;;;4.35;2.88;;;19.10;99.90;;;;;;5049316;28;20049;-74
2022/04/16 10:31:29;;;;;;;7.53;3.70;;;19.10;99.90;;;;;;5063931;28;20021;-73
2022/04/16 10:34:16;;;;;;;11.60;5.18;;;19.10;99.90;;;;;;5047385;28;20632;-75
2022/04/16 10:36:55;;;;;;;12.98;5.78;;;19.00;99.90;;;;;;5052879;28;20115;-74
2022/04/16 10:39:31;;;;;;;9.98;6.53;;;18.90;99.90;;;;;;5032387;28;20060;-74
2022/04/16 10:42:00;;;;;;;8.10;5.07;;;18.80;99.90;;;;;;5032047;28;20026;-73
2022/04/16 10:44:29;;;;;;;6.63;4.45;;;18.80;99.90;;;;;;5034077;28;20754;-73
2022/04/16 10:46:59;;;;;;;10.73;5.85;;;18.70;99.90;;;;;;5035424;28;20064;-74
2022/04/16 10:49:31;;;;;;;4.55;3.47;;;18.70;99.90;;;;;;5033554;28;20022;-74
2022/04/16 10:51:59;;;;;;;6.30;3.50;;;18.60;99.90;;;;;;5034353;28;20040;-74
2022/04/16 10:54:36;;;;;;;6.57;3.10;;;18.60;99.90;;;;;;5033223;28;20032;-74
2022/04/16 10:57:11;;;;;;;5.53;3.15;;;18.50;99.90;;;;;;5031589;28;20089;-74
2022/04/16 10:59:40;;;;;;;4.40;3.22;;;18.40;99.90;;;;;;5035175;28;20208;-75
2022/04/16 11:02:24;;;;;;;5.82;3.38;;;18.40;99.90;;;;;;5032856;28;20025;-74
2022/04/16 11:05:09;;;;;;;5.60;3.35;;;18.30;99.90;;;;;;5034976;28;20105;-75
2022/04/16 11:07:39;;;;;;;5.40;2.75;;;18.30;99.90;;;;;;5039175;28;20033;-75
2022/04/16 11:10:10;;;;;;;3.80;2.90;;;18.20;99.90;;;;;;5033106;28;20032;-75
2022/04/16 11:12:41;;;;;;;5.13;2.65;;;18.20;99.90;;;;;;5036915;28;20384;-75
2022/04/16 11:15:14;;;;;;;4.75;3.38;;;18.10;99.90;;;;;;5032999;28;20021;-75
2022/04/16 11:17:41;;;;;;;10.38;4.25;;;18.10;99.90;;;;;;5043760;28;20110;-74
2022/04/16 11:20:09;;;;;;;5.68;3.15;;;18.00;99.90;;;;;;5034209;28;20047;-75
2022/04/16 11:22:39;;;;;;;3.92;3.03;;;18.00;99.90;;;;;;5031003;28;20090;-75
2022/04/16 11:25:08;;;;;;;5.00;4.03;;;17.90;99.90;;;;;;5032400;28;21653;-76
2022/04/16 11:35:57;;;;;;;6.15;3.05;;;17.80;99.90;;;;;;5034540;28;20083;-75
2022/04/16 11:38:34;;;;;;;8.45;3.80;;;17.80;99.90;;;;;;5034016;28;20044;-75
2022/04/16 11:41:04;;;;;;;6.43;3.65;;;17.80;99.90;;;;;;5032254;28;20033;-76
2022/04/16 11:43:33;;;;;;;4.57;3.20;;;17.70;99.90;;;;;;5031427;28;20025;-75
2022/04/16 11:46:02;;;;;;;4.32;2.92;;;17.70;99.90;;;;;;5030950;28;20145;-75
2022/04/16 11:48:32;;;;;;;4.75;2.85;;;17.60;99.90;;;;;;5034936;28;20033;-76
2022/04/16 11:51:00;;;;;;;13.18;5.07;;;17.60;99.90;;;;;;5033414;28;20091;-73
2022/04/16 11:53:27;;;;;;;5.93;3.72;;;17.60;99.90;;;;;;5032957;28;20579;-74
2022/04/16 11:55:56;;;;;;;6.57;4.00;;;17.60;99.90;;;;;;5033897;28;20061;-73
2022/04/16 11:58:30;;;;;;;4.13;3.63;;;17.50;99.90;;;;;;5032408;28;20029;-75
2022/04/16 12:00:58;;;;;;;4.10;3.45;;;17.50;99.90;;;;;;5033026;28;20107;-75
2022/04/16 12:03:41;;;;;;;7.85;3.92;;;17.40;99.90;;;;;;5048352;28;20029;-75
2022/04/16 12:06:13;;;;;;;8.77;3.50;;;17.40;99.90;;;;;;5029953;28;20142;-74
2022/04/16 12:08:44;;;;;;;3.85;3.50;;;17.40;99.90;;;;;;5031405;28;20579;-75
2022/04/16 12:11:13;;;;;;;9.30;3.92;;;17.40;99.90;;;;;;5037340;28;20025;-74
2022/04/16 12:13:41;;;;;;;8.43;3.67;;;17.40;99.90;;;;;;5033083;28;20025;-74
2022/04/16 12:16:12;;;;;;;5.60;2.78;;;17.40;99.90;;;;;;5032015;28;20037;-77
2022/04/16 12:18:42;;;;;;;6.88;2.70;;;17.30;99.90;;;;;;5033926;28;20029;-76
2022/04/16 12:21:11;;;;;;;3.65;2.58;;;17.30;99.90;;;;;;5034500;28;20035;-75
2022/04/16 12:23:40;;;;;;;3.03;2.22;;;17.20;99.90;;;;;;5037644;28;20533;-74
2022/04/16 12:26:13;;;;;;;6.43;3.90;;;17.10;99.90;;;;;;5053098;28;20099;-74
2022/04/16 12:28:43;;;;;;;7.43;4.00;;;17.10;99.90;;;;;;5044101;28;20052;-74
2022/04/16 12:31:12;;;;;;;4.47;2.55;;;17.00;99.90;;;;;;5030202;28;20434;-76
2022/04/16 12:33:39;;;;;;;5.32;2.33;;;17.00;99.90;;;;;;5044817;28;20064;-74
2022/04/16 12:36:08;;;;;;;5.63;2.45;;;17.00;99.90;;;;;;5038413;28;20064;-74
2022/04/16 12:38:36;;;;;;;3.00;2.10;;;17.00;99.90;;;;;;5044019;28;20055;-75
2022/04/16 12:41:12;;;;;;;4.32;2.65;;;16.90;99.90;;;;;;5029337;28;20037;-74
2022/04/16 12:43:44;;;;;;;4.18;2.92;;;16.90;99.90;;;;;;5048967;28;20483;-74
2022/04/16 12:46:11;;;;;;;3.28;2.63;;;16.80;99.90;;;;;;5051827;28;20057;-72
2022/04/16 12:48:49;;;;;;;5.18;3.53;;;16.80;99.90;;;;;;5040643;28;20149;-75
2022/04/16 12:51:17;;;;;;;8.90;5.57;;;16.80;99.90;;;;;;5030867;28;20049;-74
2022/04/16 12:53:44;;;;;;;6.07;5.28;;;16.80;99.90;;;;;;5040808;28;20029;-75
2022/04/16 12:56:11;;;;;;;7.35;5.65;;;16.80;99.90;;;;;;5066221;28;20432;-75
2022/04/16 12:58:39;;;;;;;5.82;5.00;;;16.80;99.90;;;;;;5052450;28;20033;-76
2022/04/16 13:01:06;;;;;;;4.32;3.08;;;16.80;99.90;;;;;;5040998;28;20036;-74
2022/04/16 13:03:34;;;;;;;3.58;3.28;;;16.80;99.90;;;;;;5035595;28;20151;-76
2022/04/16 13:06:02;;;;;;;7.00;4.35;;;16.80;99.90;;;;;;5034047;28;20052;-76
2022/04/16 13:08:30;;;;;;;7.60;3.97;;;16.70;99.90;;;;;;5033354;28;20526;-74
2022/04/16 13:10:57;;;;;;;6.45;3.80;;;16.70;99.90;;;;;;5038503;28;20380;-76
2022/04/16 13:13:25;;;;;;;7.68;4.32;;;16.70;99.90;;;;;;5032651;28;20029;-75
2022/04/16 13:15:52;;;;;;;5.85;5.32;;;16.70;99.90;;;;;;5032743;28;20083;-76
2022/04/16 13:18:19;;;;;;;5.93;5.40;;;16.70;99.90;;;;;;5034829;28;20056;-75